Time;durP1;ratioP1;P1;durP2;ratioP2;P2;SDS_P1;SDS_P2;PMS_P1;PMS_P2;Temp;Humidity;BMP_temperature;BMP_pressure;BME280_temperature;BME280_humidity;BME280_pressure;Samples;Min_cycle;Max_cycle;Signal;HPM_P1;HPM_P2
2021/12/26 00:02:10;;;;;;;3.78;2.08;;;;;;;-142.75;100.00;58249.25;5028250;28;20078;-67
2021/12/26 00:04:35;;;;;;;5.60;2.15;;;;;;;-142.75;100.00;58249.25;5029604;28;20045;-67
2021/12/26 00:07:02;;;;;;;6.53;2.47;;;;;;;-142.75;100.00;58249.25;5029430;28;20033;-67
2021/12/26 14:50:23;;;;;;;14.73;8.37;;;;;;;-142.75;100.00;78033.13;5064908;28;20361;-65
2021/12/26 14:52:55;;;;;;;20.15;11.63;;;;;;;-142.75;100.00;78027.22;5065776;28;20032;-66
2021/12/26 14:55:29;;;;;;;14.27;8.67;;;;;;;-142.75;100.00;78031.16;5065864;28;20021;-64
2021/12/26 14:57:55;;;;;;;14.87;9.17;;;;;;;-142.75;100.00;78027.22;5064727;28;20379;-67
2021/12/26 15:00:25;;;;;;;16.40;8.93;;;;;;;-142.75;100.00;78015.41;5064568;28;20033;-65
2021/12/26 15:02:54;;;;;;;13.87;8.93;;;;;;;-142.75;100.00;78015.41;5065433;28;20082;-66
2021/12/26 15:05:31;;;;;;;16.00;8.37;;;;;;;-142.75;100.00;78015.41;5064018;28;20383;-66
2021/12/26 15:08:02;;;;;;;13.93;8.13;;;;;;;-142.75;100.00;78015.41;5063455;28;20021;-65
2021/12/26 15:10:47;;;;;;;16.10;8.83;;;;;;;-142.75;100.00;78019.34;5062800;28;20557;-66
2021/12/26 15:13:15;;;;;;;14.37;7.57;;;;;;;-142.75;100.00;78031.16;5063381;28;20044;-66
2021/12/26 15:15:43;;;;;;;16.27;8.93;;;;;;;-142.75;100.00;78031.16;5065173;28;20033;-66
2021/12/26 15:18:13;;;;;;;16.93;8.50;;;;;;;-142.75;100.00;78027.22;5064994;28;20043;-66
2021/12/26 15:20:41;;;;;;;13.00;8.43;;;;;;;-142.75;100.00;78023.28;5062833;28;20734;-66
2021/12/26 15:23:14;;;;;;;16.77;8.73;;;;;;;-142.75;100.00;78027.22;5064977;28;20494;-66
2021/12/26 15:25:59;;;;;;;16.20;9.50;;;;;;;-142.75;100.00;78029.19;5064906;28;20040;-66
2021/12/26 15:28:49;;;;;;;13.40;8.17;;;;;;;-142.75;100.00;78035.09;5072833;28;20028;-65
2021/12/26 15:31:35;;;;;;;16.30;8.57;;;;;;;-142.75;100.00;78025.25;5084568;28;20097;-66
2021/12/26 15:34:05;;;;;;;17.80;8.90;;;;;;;-142.75;100.00;78025.25;5084640;28;20040;-65
2021/12/26 15:36:37;;;;;;;13.87;8.17;;;;;;;-142.75;100.00;78027.22;5083509;28;20060;-66
2021/12/26 15:39:15;;;;;;;16.37;8.10;;;;;;;-142.75;100.00;78019.34;5084908;28;20816;-66
2021/12/26 15:41:43;;;;;;;15.30;8.37;;;;;;;-142.75;100.00;78019.34;5082938;28;20403;-66
2021/12/26 15:44:10;;;;;;;12.73;7.87;;;;;;;-142.75;100.00;78027.22;5083593;28;20034;-67
2021/12/26 15:46:39;;;;;;;13.67;8.60;;;;;;;-142.75;100.00;78035.09;5084978;28;20027;-66
2021/12/26 15:49:05;;;;;;;14.27;8.10;;;;;;;-142.75;100.00;78039.03;5084412;28;20028;-66
2021/12/26 15:51:31;;;;;;;15.77;8.83;;;;;;;-142.75;100.00;78035.09;5083350;28;20387;-66
2021/12/26 15:53:56;;;;;;;14.45;9.45;;;;;;;-142.75;100.00;78033.13;5081453;28;20074;-68
2021/12/26 15:56:22;;;;;;;14.50;9.73;;;;;;;-142.75;100.00;78029.19;5082931;28;20024;-65
2021/12/26 15:58:49;;;;;;;14.88;9.40;;;;;;;-142.75;100.00;78029.19;5067018;28;20028;-66
2021/12/26 16:01:15;;;;;;;15.83;9.20;;;;;;;-142.75;100.00;78031.16;5070748;28;20112;-67
2021/12/26 16:03:41;;;;;;;24.48;12.63;;;;;;;-142.75;100.00;78027.22;5051226;28;20112;-66
2021/12/26 16:06:06;;;;;;;15.65;9.52;;;;;;;-142.75;100.00;78015.41;5050755;28;20029;-66
2021/12/26 16:08:32;;;;;;;14.68;9.20;;;;;;;-142.75;100.00;78011.47;5050849;28;20028;-65
2021/12/26 16:10:59;;;;;;;16.30;10.38;;;;;;;-142.75;100.00;78013.44;5050075;28;20098;-67
2021/12/26 16:13:25;;;;;;;16.60;8.77;;;;;;;-142.75;100.00;78023.28;5050818;28;20044;-66
2021/12/26 16:15:50;;;;;;;15.70;9.52;;;;;;;-142.75;100.00;78015.41;5049953;28;20077;-66
2021/12/26 16:18:19;;;;;;;15.38;8.93;;;;;;;-142.75;100.00;78003.59;5050440;28;20033;-66
2021/12/26 16:20:45;;;;;;;17.80;9.90;;;;;;;-142.75;100.00;78009.50;5049767;28;20128;-66
2021/12/26 16:23:10;;;;;;;26.65;13.48;;;;;;;-142.75;100.00;78007.53;5054314;28;20099;-66
2021/12/26 16:25:35;;;;;;;16.02;9.60;;;;;;;-142.75;100.00;78003.59;5070626;28;20071;-66
2021/12/26 16:28:03;;;;;;;16.58;9.65;;;;;;;-142.75;100.00;78001.63;5070527;28;20048;-66
2021/12/26 16:30:28;;;;;;;16.03;9.57;;;;;;;-142.75;100.00;77999.66;5069906;28;20676;-66
2021/12/26 16:32:54;;;;;;;16.60;9.73;;;;;;;-142.75;100.00;77991.78;5070523;28;20099;-66
2021/12/26 16:35:21;;;;;;;16.30;9.70;;;;;;;-142.75;100.00;77983.91;5070445;28;20103;-66
2021/12/26 16:37:48;;;;;;;17.97;9.93;;;;;;;-142.75;100.00;77987.84;5070573;28;20059;-66
2021/12/26 16:40:15;;;;;;;15.90;9.80;;;;;;;-142.75;100.00;77985.88;5069367;28;20016;-66
2021/12/26 16:42:40;;;;;;;20.33;10.87;;;;;;;-142.75;100.00;77987.84;5070305;28;20036;-66
2021/12/26 16:45:07;;;;;;;17.27;9.70;;;;;;;-142.75;100.00;77987.84;5068405;28;20024;-66
2021/12/26 16:47:32;;;;;;;;;;;;;;;-142.75;100.00;77979.97;5069133;28;20025;-66
2021/12/26 16:49:57;;;;;;;16.13;10.83;;;;;;;-142.75;100.00;77972.09;5068924;28;20261;-66
2021/12/26 16:52:23;;;;;;;21.25;11.00;;;;;;;-142.75;100.00;77966.19;5070142;28;20039;-65
2021/12/26 16:54:48;;;;;;;26.00;13.68;;;;;;;-142.75;100.00;77960.28;5070314;28;20071;-66
2021/12/26 16:57:17;;;;;;;19.50;10.82;;;;;;;-142.75;100.00;77952.41;5068795;28;20028;-66
2021/12/26 16:59:42;;;;;;;21.00;10.90;;;;;;;-142.75;100.00;77952.41;5068966;28;20035;-65
2021/12/26 17:02:08;;;;;;;18.35;10.77;;;;;;;-142.75;100.00;77940.59;5068549;28;20020;-66
2021/12/26 17:04:33;;;;;;;18.67;10.90;;;;;;;-142.75;100.00;77936.66;5069806;28;20036;-66
2021/12/26 17:06:59;;;;;;;18.15;10.27;;;;;;;-142.75;100.00;77934.69;5069699;28;20024;-66
2021/12/26 17:09:24;;;;;;;16.02;10.20;;;;;;;-142.75;100.00;77936.66;5069590;28;20104;-66
2021/12/26 17:11:50;;;;;;;16.80;10.13;;;;;;;-142.75;100.00;77934.69;5068319;28;20509;-66
2021/12/26 17:14:16;;;;;;;16.67;9.80;;;;;;;-142.75;100.00;77924.84;5068287;28;20064;-66
2021/12/26 17:16:42;;;;;;;15.87;10.40;;;;;;;-142.75;100.00;77916.97;5069516;28;20124;-66
2021/12/26 17:19:07;;;;;;;18.48;10.50;;;;;;;-142.75;100.00;77913.03;5061277;28;20127;-66
2021/12/26 17:21:33;;;;;;;19.37;10.77;;;;;;;-142.75;100.00;77909.06;5048707;28;20025;-66
2021/12/26 17:23:59;;;;;;;16.55;10.32;;;;;;;-142.75;100.00;77899.22;5049549;28;20879;-66
2021/12/26 17:26:25;;;;;;;17.85;10.18;;;;;;;-142.75;100.00;77889.38;5049467;28;20059;-66
2021/12/26 17:28:51;;;;;;;16.87;9.80;;;;;;;-142.75;100.00;77885.44;5048189;28;20017;-66
2021/12/26 17:31:17;;;;;;;18.13;11.20;;;;;;;-142.75;100.00;77885.44;5048778;28;20111;-66
2021/12/26 17:33:43;;;;;;;17.23;10.90;;;;;;;-142.75;100.00;77883.47;5049319;28;20029;-65
2021/12/26 17:36:10;;;;;;;15.53;10.13;;;;;;;-142.75;100.00;77881.50;5049189;28;20402;-66
2021/12/26 17:38:38;;;;;;;16.63;10.10;;;;;;;-142.75;100.00;77861.81;5049162;28;20020;-66
2021/12/26 17:41:04;;;;;;;18.17;10.90;;;;;;;-142.75;100.00;77861.81;5048343;28;20048;-66
2021/12/26 17:43:30;;;;;;;21.10;10.73;;;;;;;-142.75;100.00;77859.84;5047872;28;20036;-66
2021/12/26 17:45:56;;;;;;;;;;;;;;;-142.75;100.00;77861.81;5049612;28;20028;-66
2021/12/26 17:48:23;;;;;;;18.17;11.00;;;;;;;-142.75;100.00;77863.78;5047472;28;20007;-65
2021/12/26 17:50:48;;;;;;;16.47;9.90;;;;;;;-142.75;100.00;77861.81;5048216;28;20025;-66
2021/12/26 17:53:14;;;;;;;18.77;11.35;;;;;;;-142.75;100.00;77865.75;5049121;28;20029;-66
2021/12/26 17:55:39;;;;;;;19.83;11.60;;;;;;;-142.75;100.00;77853.94;5048681;28;20031;-66
2021/12/26 17:58:04;;;;;;;20.30;11.32;;;;;;;-142.75;100.00;77857.88;5048807;28;20275;-66
2021/12/26 18:00:30;;;;;;;17.23;10.60;;;;;;;-142.75;100.00;77853.94;5048106;28;20035;-66
2021/12/26 18:02:55;;;;;;;20.40;11.88;;;;;;;-142.75;100.00;77846.06;5048894;28;20040;-66
2021/12/26 18:05:21;;;;;;;18.97;12.30;;;;;;;-142.75;100.00;77850.00;5044110;28;20666;-65
2021/12/26 18:07:47;;;;;;;21.23;13.15;;;;;;;-142.75;100.00;77857.88;5050213;28;20017;-67
2021/12/26 18:10:13;;;;;;;16.58;10.63;;;;;;;-142.75;100.00;77846.06;5051748;28;20031;-66
2021/12/26 18:12:41;;;;;;;18.47;10.60;;;;;;;-142.75;100.00;77844.09;5054564;28;20036;-66
2021/12/26 18:15:10;;;;;;;57.37;31.83;;;;;;;-142.75;100.00;77838.19;5054187;28;20123;-66
2021/12/26 18:17:37;;;;;;;53.40;33.03;;;;;;;-142.75;100.00;77834.25;5068582;28;20032;-67
2021/12/26 18:20:03;;;;;;;;;;;;;;;-142.75;100.00;77830.31;5068038;28;20020;-67
2021/12/26 18:22:28;;;;;;;20.63;12.03;;;;;;;-142.75;100.00;77834.25;5068602;28;19912;-66
2021/12/26 18:24:53;;;;;;;24.38;14.43;;;;;;;-142.75;100.00;77826.38;5068065;28;20237;-66
2021/12/26 18:27:19;;;;;;;25.70;15.20;;;;;;;-142.75;100.00;77818.50;5068558;28;20025;-67
2021/12/26 18:29:44;;;;;;;22.77;13.48;;;;;;;-142.75;100.00;77822.44;5067289;28;20032;-66
2021/12/26 18:32:10;;;;;;;19.25;11.70;;;;;;;-142.75;100.00;77818.50;5068138;28;20405;-66
2021/12/26 18:34:36;;;;;;;21.60;12.85;;;;;;;-142.75;100.00;77824.41;5067887;28;20028;-66
2021/12/26 18:37:01;;;;;;;28.60;13.18;;;;;;;-142.75;100.00;77822.44;5068139;28;20024;-65
2021/12/26 18:39:28;;;;;;;20.77;11.48;;;;;;;-142.75;100.00;77824.41;5067558;28;20082;-67
2021/12/26 18:41:53;;;;;;;21.47;13.63;;;;;;;-142.75;100.00;77820.47;5065828;28;20552;-66
2021/12/26 18:44:18;;;;;;;19.55;13.73;;;;;;;-142.75;100.00;77826.38;5064936;28;20105;-66
2021/12/26 18:46:45;;;;;;;21.77;13.70;;;;;;;-142.75;100.00;77820.47;5067619;28;20532;-66
2021/12/26 18:49:11;;;;;;;24.57;15.47;;;;;;;-142.75;100.00;77818.50;5067849;28;20336;-66
2021/12/26 18:51:36;;;;;;;21.52;13.55;;;;;;;-142.75;100.00;77816.53;5046086;28;20032;-66
2021/12/26 18:54:03;;;;;;;22.25;14.23;;;;;;;-142.75;100.00;77812.59;5048271;28;20036;-66
2021/12/26 18:56:29;;;;;;;20.43;12.03;;;;;;;-142.75;100.00;77814.56;5048213;28;20511;-66
2021/12/26 18:58:57;;;;;;;20.63;12.82;;;;;;;-142.75;100.00;77814.56;5063451;28;20040;-66
2021/12/26 19:01:26;;;;;;;23.27;13.27;;;;;;;-142.75;100.00;77820.47;5067372;28;20547;-65
2021/12/26 19:03:52;;;;;;;19.17;12.27;;;;;;;-142.75;100.00;77822.44;5066976;28;20475;-64
2021/12/26 19:06:18;;;;;;;23.15;12.75;;;;;;;-142.75;100.00;77830.31;5067094;28;20116;-65
2021/12/26 19:08:44;;;;;;;24.43;12.27;;;;;;;-142.75;100.00;77828.34;5067886;28;20386;-66
2021/12/26 19:11:10;;;;;;;21.20;12.40;;;;;;;-142.75;100.00;77828.34;5067358;28;20108;-67
2021/12/26 19:13:35;;;;;;;23.27;14.00;;;;;;;-142.75;100.00;77820.47;5063302;28;20112;-66
2021/12/26 19:16:02;;;;;;;22.48;13.40;;;;;;;-142.75;100.00;77820.47;5046788;28;20465;-65
2021/12/26 19:18:27;;;;;;;22.93;15.17;;;;;;;-142.75;100.00;77820.47;5046227;28;20027;-66
2021/12/26 19:20:55;;;;;;;26.83;15.27;;;;;;;-142.75;100.00;77818.50;5047305;28;20025;-66
2021/12/26 19:23:21;;;;;;;28.07;14.80;;;;;;;-142.75;100.00;77822.44;5044780;28;20021;-65
2021/12/26 19:25:49;;;;;;;44.70;20.17;;;;;;;-142.75;100.00;77816.53;5046914;28;20025;-66
2021/12/26 19:28:16;;;;;;;22.77;13.70;;;;;;;-142.75;100.00;77814.56;5045066;28;20025;-66
2021/12/26 19:30:41;;;;;;;25.20;14.63;;;;;;;-142.75;100.00;77810.63;5045312;28;20116;-66
2021/12/26 19:33:08;;;;;;;28.35;14.88;;;;;;;-142.75;100.00;77810.63;5045241;28;20101;-66
2021/12/26 19:35:36;;;;;;;23.43;13.23;;;;;;;-142.75;100.00;77802.75;5047396;28;20529;-67
2021/12/26 19:38:04;;;;;;;34.00;17.00;;;;;;;-142.75;100.00;77802.75;5050166;28;20036;-66
2021/12/26 19:40:29;;;;;;;25.03;14.40;;;;;;;-142.75;100.00;77798.81;5049537;28;20056;-66
2021/12/26 19:42:55;;;;;;;27.02;15.35;;;;;;;-142.75;100.00;77796.84;5050100;28;20060;-66
2021/12/26 19:45:20;;;;;;;24.73;15.25;;;;;;;-142.75;100.00;77800.78;5047265;28;20124;-65
2021/12/26 19:47:46;;;;;;;29.38;17.40;;;;;;;-142.75;100.00;77790.94;5050240;28;20130;-66
2021/12/26 19:50:12;;;;;;;26.73;16.00;;;;;;;-142.75;100.00;77783.06;5048961;28;20107;-66
2021/12/26 19:52:38;;;;;;;25.27;14.20;;;;;;;-142.75;100.00;77783.06;5050186;28;20086;-66
2021/12/26 19:55:04;;;;;;;53.70;31.65;;;;;;;-142.75;100.00;77785.03;5049990;28;20025;-66
2021/12/26 19:57:29;;;;;;;25.38;15.32;;;;;;;-142.75;100.00;77779.13;5049847;28;20021;-66
2021/12/26 19:59:54;;;;;;;26.55;14.70;;;;;;;-142.75;100.00;77781.09;5049007;28;20025;-65
2021/12/26 20:02:20;;;;;;;29.13;18.27;;;;;;;-142.75;100.00;77775.19;5049781;28;20031;-66
2021/12/26 20:04:46;;;;;;;32.85;18.02;;;;;;;-142.75;100.00;77779.13;5049925;28;20036;-66
2021/12/26 20:07:11;;;;;;;25.63;15.07;;;;;;;-142.75;100.00;77769.28;5049834;28;20115;-66
2021/12/26 20:09:37;;;;;;;23.15;14.40;;;;;;;-142.75;100.00;77765.34;5049232;28;20102;-64
2021/12/26 20:12:03;;;;;;;28.83;15.17;;;;;;;-142.75;100.00;77765.34;5049192;28;20032;-66
2021/12/26 20:14:28;;;;;;;25.08;14.43;;;;;;;-142.75;100.00;77759.44;5049544;28;20306;-66
2021/12/26 20:16:53;;;;;;;27.55;15.57;;;;;;;-142.75;100.00;77759.44;5051048;28;20064;-65
2021/12/26 20:19:19;;;;;;;32.30;18.23;;;;;;;-142.75;100.00;77755.50;5057249;28;20029;-67
2021/12/26 20:21:51;;;;;;;28.75;16.30;;;;;;;-142.75;100.00;77765.34;5049568;28;20550;-66
2021/12/26 20:24:21;;;;;;;25.37;15.83;;;;;;;-142.75;100.00;77765.34;5053400;28;20048;-66
2021/12/26 20:26:48;;;;;;;25.33;15.77;;;;;;;-142.75;100.00;77759.44;5049135;28;20478;-66
2021/12/26 20:29:14;;;;;;;29.90;17.87;;;;;;;-142.75;100.00;77753.53;5049016;28;20040;-66
2021/12/26 20:31:40;;;;;;;;;;;;;;;-142.75;100.00;77753.53;5048953;28;20033;-66
2021/12/26 20:34:06;;;;;;;27.00;16.13;;;;;;;-142.75;100.00;77751.56;5047843;28;20365;-66
2021/12/26 20:36:31;;;;;;;31.60;17.00;;;;;;;-142.75;100.00;77751.56;5049312;28;20094;-66
2021/12/26 20:38:57;;;;;;;28.02;16.08;;;;;;;-142.75;100.00;77745.66;5048816;28;20016;-65
2021/12/26 20:41:23;;;;;;;31.58;16.50;;;;;;;-142.75;100.00;77747.63;5048146;28;20033;-66
2021/12/26 20:43:50;;;;;;;31.50;18.60;;;;;;;-142.75;100.00;77741.72;5046351;28;20025;-66
2021/12/26 20:46:15;;;;;;;35.97;20.90;;;;;;;-142.75;100.00;77745.66;5048896;28;20607;-66
2021/12/26 20:48:41;;;;;;;27.88;16.55;;;;;;;-142.75;100.00;77747.63;5048531;28;20029;-65
2021/12/26 20:51:07;;;;;;;26.23;15.15;;;;;;;-142.75;100.00;77747.63;5046802;28;20075;-66
2021/12/26 20:53:36;;;;;;;;;;;;;;;-142.75;100.00;77735.81;5049280;28;20028;-66
2021/12/26 20:56:02;;;;;;;25.00;14.27;;;;;;;-142.75;100.00;77731.88;5049703;28;19940;-66
2021/12/26 20:58:28;;;;;;;24.73;14.77;;;;;;;-142.75;100.00;77733.84;5049963;28;20560;-66
2021/12/26 21:00:54;;;;;;;23.48;15.10;;;;;;;-142.75;100.00;77720.03;5049342;28;20029;-65
2021/12/26 21:03:20;;;;;;;22.03;12.70;;;;;;;-142.75;100.00;77722.00;5049937;28;20044;-67
2021/12/26 21:05:46;;;;;;;25.23;14.73;;;;;;;-142.75;100.00;77716.09;5050026;28;20028;-66
2021/12/26 21:08:12;;;;;;;21.63;14.05;;;;;;;-142.75;100.00;77712.16;5049568;28;20113;-66
2021/12/26 21:10:39;;;;;;;27.23;15.65;;;;;;;-142.75;100.00;77712.16;5049124;28;20029;-66
2021/12/26 21:13:04;;;;;;;25.30;14.30;;;;;;;-142.75;100.00;77712.16;5046677;28;20552;-66
2021/12/26 21:15:29;;;;;;;23.33;14.98;;;;;;;-142.75;100.00;77710.19;5051423;28;20029;-66
2021/12/26 21:17:55;;;;;;;28.80;16.70;;;;;;;-142.75;100.00;77710.19;5048292;28;20564;-66
2021/12/26 21:20:20;;;;;;;27.45;16.20;;;;;;;-142.75;100.00;77704.28;5047334;28;20029;-65
2021/12/26 21:22:49;;;;;;;23.63;14.98;;;;;;;-142.75;100.00;77700.34;5048508;28;20389;-66
2021/12/26 21:25:15;;;;;;;23.70;13.97;;;;;;;-142.75;100.00;77704.28;5046969;28;20064;-65
2021/12/26 21:27:41;;;;;;;22.20;14.20;;;;;;;-142.75;100.00;77700.34;5048138;28;20029;-66
2021/12/26 21:30:07;;;;;;;27.25;14.95;;;;;;;-142.75;100.00;77698.38;5047004;28;20364;-66
2021/12/26 21:32:33;;;;;;;25.27;15.00;;;;;;;-142.75;100.00;77692.47;5047973;28;20056;-66
2021/12/26 21:34:58;;;;;;;26.25;15.38;;;;;;;-142.75;100.00;77686.56;5046513;28;20063;-65
2021/12/26 21:37:24;;;;;;;28.98;17.48;;;;;;;-142.75;100.00;77674.75;5043768;28;20024;-65
2021/12/26 21:39:49;;;;;;;26.90;16.65;;;;;;;-142.75;100.00;77686.56;5043839;28;20717;-66
2021/12/26 21:42:14;;;;;;;29.05;16.70;;;;;;;-142.75;100.00;77676.72;5047752;28;20032;-66
2021/12/26 21:44:43;;;;;;;25.87;15.73;;;;;;;-142.75;100.00;77676.72;5047904;28;20021;-65
2021/12/26 21:47:09;;;;;;;27.40;15.60;;;;;;;-142.75;100.00;77688.53;5047414;28;20112;-66
2021/12/26 21:49:34;;;;;;;28.70;16.17;;;;;;;-142.75;100.00;77690.50;5045784;28;20535;-66
2021/12/26 21:52:00;;;;;;;29.05;15.98;;;;;;;-142.75;100.00;77698.38;5046688;28;20028;-66
2021/12/26 21:54:25;;;;;;;26.52;15.63;;;;;;;-142.75;100.00;77696.41;5046192;28;20036;-66
2021/12/26 21:56:51;;;;;;;33.47;16.63;;;;;;;-142.75;100.00;77688.53;5046428;28;20029;-66
2021/12/26 21:59:17;;;;;;;28.58;15.82;;;;;;;-142.75;100.00;77686.56;5047167;28;20111;-66
2021/12/26 22:01:47;;;;;;;30.38;16.00;;;;;;;-142.75;100.00;77678.69;5045097;28;20159;-66
2021/12/26 22:04:14;;;;;;;29.20;16.23;;;;;;;-142.75;100.00;77676.72;5047223;28;20025;-66
2021/12/26 22:06:39;;;;;;;31.33;17.80;;;;;;;-142.75;100.00;77672.78;5045217;28;20115;-66
2021/12/26 22:09:05;;;;;;;33.20;18.20;;;;;;;-142.75;100.00;77668.84;5046969;28;20044;-66
2021/12/26 22:11:30;;;;;;;38.30;17.27;;;;;;;-142.75;100.00;77668.84;5044917;28;20103;-66
2021/12/26 22:13:55;;;;;;;36.08;18.52;;;;;;;-142.75;100.00;77668.84;5044601;28;20039;-66
2021/12/26 22:16:21;;;;;;;32.27;18.07;;;;;;;-142.75;100.00;77662.94;5054594;28;20056;-65
2021/12/26 22:18:46;;;;;;;32.47;17.95;;;;;;;-142.75;100.00;77668.84;5068083;28;20285;-66
2021/12/26 22:21:11;;;;;;;46.90;19.67;;;;;;;-142.75;100.00;77662.94;5067914;28;20073;-66
2021/12/26 22:23:37;;;;;;;37.88;18.95;;;;;;;-142.75;100.00;77662.94;5061956;28;20028;-66
2021/12/26 22:26:02;;;;;;;36.78;18.40;;;;;;;-142.75;100.00;77657.03;5067014;28;20055;-67
2021/12/26 22:28:28;;;;;;;40.75;18.90;;;;;;;-142.75;100.00;77649.16;5062264;28;20024;-66
2021/12/26 22:30:53;;;;;;;41.20;18.98;;;;;;;-142.75;100.00;77643.25;5067169;28;20024;-65
2021/12/26 22:33:18;;;;;;;38.30;18.57;;;;;;;-142.75;100.00;77641.28;5067410;28;20031;-67
2021/12/26 22:35:44;;;;;;;43.10;19.27;;;;;;;-142.75;100.00;77641.28;5068311;28;20032;-66
2021/12/26 22:38:10;;;;;;;35.40;16.92;;;;;;;-142.75;100.00;77641.28;5045688;28;20390;-66
2021/12/26 22:40:35;;;;;;;42.72;19.10;;;;;;;-142.75;100.00;77633.41;5046220;28;20032;-66
2021/12/26 22:43:02;;;;;;;36.20;18.77;;;;;;;-142.75;100.00;77629.47;5046856;28;20462;-67
2021/12/26 22:45:27;;;;;;;41.13;20.10;;;;;;;-142.75;100.00;77627.50;5048022;28;20383;-66
2021/12/26 22:47:53;;;;;;;43.90;20.45;;;;;;;-142.75;100.00;77619.63;5048122;28;20074;-66
2021/12/26 22:50:19;;;;;;;45.40;20.52;;;;;;;-142.75;100.00;77609.78;5047378;28;20036;-66
2021/12/26 22:52:45;;;;;;;41.63;19.50;;;;;;;-142.75;100.00;77609.78;5048142;28;20406;-66
2021/12/26 22:55:12;;;;;;;40.15;19.55;;;;;;;-142.75;100.00;77601.91;5048292;28;20021;-66
2021/12/26 22:57:37;;;;;;;41.93;20.07;;;;;;;-142.75;100.00;77594.03;5045837;28;20433;-67
2021/12/26 23:00:13;;;;;;;41.08;19.92;;;;;;;-142.75;100.00;77590.09;5045734;28;20032;-66
2021/12/26 23:02:38;;;;;;;40.57;19.83;;;;;;;-142.75;100.00;77592.06;5047435;28;20372;-67
2021/12/26 23:05:05;;;;;;;33.97;18.55;;;;;;;-142.75;100.00;77588.13;5044591;28;20036;-66
2021/12/26 23:07:31;;;;;;;38.40;19.97;;;;;;;-142.75;100.00;77590.09;5047986;28;20143;-66
2021/12/26 23:09:56;;;;;;;40.35;20.20;;;;;;;-142.75;100.00;77586.16;5046155;28;21026;-66
2021/12/26 23:12:22;;;;;;;40.65;20.30;;;;;;;-142.75;100.00;77582.22;5050743;28;20115;-66
2021/12/26 23:14:48;;;;;;;48.63;21.55;;;;;;;-142.75;100.00;77590.09;5052116;28;20479;-66
2021/12/26 23:17:15;;;;;;;41.13;19.95;;;;;;;-142.75;100.00;77580.25;5055701;22;20050;-69
2021/12/26 23:19:40;;;;;;;44.03;19.60;;;;;;;-142.75;100.00;77574.34;5012509;28;20048;-69
2021/12/26 23:22:08;;;;;;;42.20;19.38;;;;;;;-142.75;100.00;77570.41;5012800;28;20029;-69
2021/12/26 23:24:33;;;;;;;46.10;20.97;;;;;;;-142.75;100.00;77558.59;5012842;28;20026;-69
